sensor_id;sensor_type;location;lat;lon;timestamp;temperature;humidity
11650;DHT22;5881;48.522;7.682;2023-04-15T00:00:37;5.50;1.00
11650;DHT22;5881;48.522;7.682;2023-04-15T00:03:03;5.40;1.00
11650;DHT22;5881;48.522;7.682;2023-04-15T00:05:30;5.40;1.00
11650;DHT22;5881;48.522;7.682;2023-04-15T00:07:56;5.30;1.00
11650;DHT22;5881;48.522;7.682;2023-04-15T00:10:23;5.20;1.00
11650;DHT22;5881;48.522;7.682;2023-04-15T00:12:49;5.40;1.00
11650;DHT22;5881;48.522;7.682;2023-04-15T00:15:15;5.40;1.00
11650;DHT22;5881;48.522;7.682;2023-04-15T00:17:41;5.40;1.00
11650;DHT22;5881;48.522;7.682;2023-04-15T00:20:06;5.40;1.00
11650;DHT22;5881;48.522;7.682;2023-04-15T00:22:32;5.20;1.00
11650;DHT22;5881;48.522;7.682;2023-04-15T00:24:58;5.10;1.00
11650;DHT22;5881;48.522;7.682;2023-04-15T00:27:23;5.00;1.00
11650;DHT22;5881;48.522;7.682;2023-04-15T00:29:49;4.90;1.00
11650;DHT22;5881;48.522;7.682;2023-04-15T00:32:14;5.00;1.00
11650;DHT22;5881;48.522;7.682;2023-04-15T00:34:40;5.00;1.00
11650;DHT22;5881;48.522;7.682;2023-04-15T00:37:06;5.00;1.00
11650;DHT22;5881;48.522;7.682;2023-04-15T00:39:32;4.90;1.00
11650;DHT22;5881;48.522;7.682;2023-04-15T00:41:57;4.90;1.00
11650;DHT22;5881;48.522;7.682;2023-04-15T00:44:23;4.80;1.00
11650;DHT22;5881;48.522;7.682;2023-04-15T00:46:50;4.80;1.00
11650;DHT22;5881;48.522;7.682;2023-04-15T00:49:16;4.80;1.00
11650;DHT22;5881;48.522;7.682;2023-04-15T00:51:42;4.90;1.00
11650;DHT22;5881;48.522;7.682;2023-04-15T00:54:09;4.70;1.00
11650;DHT22;5881;48.522;7.682;2023-04-15T00:56:35;4.70;1.00
11650;DHT22;5881;48.522;7.682;2023-04-15T00:59:02;4.70;1.00
11650;DHT22;5881;48.522;7.682;2023-04-15T01:01:28;4.70;1.00
11650;DHT22;5881;48.522;7.682;2023-04-15T01:03:55;4.60;1.00
11650;DHT22;5881;48.522;7.682;2023-04-15T01:06:24;4.50;1.00
11650;DHT22;5881;48.522;7.682;2023-04-15T01:08:51;4.70;1.00
11650;DHT22;5881;48.522;7.682;2023-04-15T01:11:18;4.70;1.00
11650;DHT22;5881;48.522;7.682;2023-04-15T01:13:45;4.70;1.00
11650;DHT22;5881;48.522;7.682;2023-04-15T01:16:11;4.60;1.00
11650;DHT22;5881;48.522;7.682;2023-04-15T01:18:38;4.40;1.00
11650;DHT22;5881;48.522;7.682;2023-04-15T01:21:04;4.40;23.40
11650;DHT22;5881;48.522;7.682;2023-04-15T01:23:31;4.60;36.80
11650;DHT22;5881;48.522;7.682;2023-04-15T01:25:58;4.50;57.80
11650;DHT22;5881;48.522;7.682;2023-04-15T01:28:24;4.80;35.40
11650;DHT22;5881;48.522;7.682;2023-04-15T01:30:50;4.80;23.30
11650;DHT22;5881;48.522;7.682;2023-04-15T01:33:29;4.80;12.50
11650;DHT22;5881;48.522;7.682;2023-04-15T01:35:56;4.70;45.80
11650;DHT22;5881;48.522;7.682;2023-04-15T01:38:21;4.90;17.70
11650;DHT22;5881;48.522;7.682;2023-04-15T01:40:47;4.80;10.70
11650;DHT22;5881;48.522;7.682;2023-04-15T01:43:13;4.90;1.00
11650;DHT22;5881;48.522;7.682;2023-04-15T01:45:39;5.00;3.90
11650;DHT22;5881;48.522;7.682;2023-04-15T01:48:06;5.10;3.70
11650;DHT22;5881;48.522;7.682;2023-04-15T01:50:31;4.90;1.00
11650;DHT22;5881;48.522;7.682;2023-04-15T01:52:57;4.90;12.50
11650;DHT22;5881;48.522;7.682;2023-04-15T01:55:22;5.10;27.70
11650;DHT22;5881;48.522;7.682;2023-04-15T01:57:48;4.90;14.80
11650;DHT22;5881;48.522;7.682;2023-04-15T02:00:14;4.80;22.50
11650;DHT22;5881;48.522;7.682;2023-04-15T02:02:40;4.80;33.70
11650;DHT22;5881;48.522;7.682;2023-04-15T02:05:06;4.80;58.50
11650;DHT22;5881;48.522;7.682;2023-04-15T02:07:32;4.70;74.90
11650;DHT22;5881;48.522;7.682;2023-04-15T02:09:58;4.70;71.00
11650;DHT22;5881;48.522;7.682;2023-04-15T02:12:23;4.70;96.20
11650;DHT22;5881;48.522;7.682;2023-04-15T02:14:49;4.70;99.90
11650;DHT22;5881;48.522;7.682;2023-04-15T02:17:14;4.80;99.90
11650;DHT22;5881;48.522;7.682;2023-04-15T02:19:40;4.90;99.90
11650;DHT22;5881;48.522;7.682;2023-04-15T02:22:06;4.70;99.90
11650;DHT22;5881;48.522;7.682;2023-04-15T02:24:33;4.70;99.90
11650;DHT22;5881;48.522;7.682;2023-04-15T02:26:59;4.60;99.90
11650;DHT22;5881;48.522;7.682;2023-04-15T02:29:26;4.70;99.90
11650;DHT22;5881;48.522;7.682;2023-04-15T02:31:52;4.70;99.90
11650;DHT22;5881;48.522;7.682;2023-04-15T02:34:17;4.80;99.90
11650;DHT22;5881;48.522;7.682;2023-04-15T02:36:43;4.50;99.90
11650;DHT22;5881;48.522;7.682;2023-04-15T02:39:08;4.70;99.90
11650;DHT22;5881;48.522;7.682;2023-04-15T02:41:34;4.50;99.90
11650;DHT22;5881;48.522;7.682;2023-04-15T02:44:00;4.50;99.90
11650;DHT22;5881;48.522;7.682;2023-04-15T02:46:25;4.70;99.90
11650;DHT22;5881;48.522;7.682;2023-04-15T02:48:51;4.70;99.90
11650;DHT22;5881;48.522;7.682;2023-04-15T02:51:21;4.60;99.90
11650;DHT22;5881;48.522;7.682;2023-04-15T02:53:47;4.60;99.90
11650;DHT22;5881;48.522;7.682;2023-04-15T02:56:13;4.40;99.90
11650;DHT22;5881;48.522;7.682;2023-04-15T02:58:43;4.40;99.90
11650;DHT22;5881;48.522;7.682;2023-04-15T03:01:09;4.40;99.90
11650;DHT22;5881;48.522;7.682;2023-04-15T03:03:35;4.50;99.90
11650;DHT22;5881;48.522;7.682;2023-04-15T03:06:01;4.50;99.90
11650;DHT22;5881;48.522;7.682;2023-04-15T03:08:27;4.40;99.90
11650;DHT22;5881;48.522;7.682;2023-04-15T03:10:52;4.30;99.90
11650;DHT22;5881;48.522;7.682;2023-04-15T03:13:19;4.20;99.90
11650;DHT22;5881;48.522;7.682;2023-04-15T03:15:48;4.10;99.90
11650;DHT22;5881;48.522;7.682;2023-04-15T03:18:13;4.10;99.90
11650;DHT22;5881;48.522;7.682;2023-04-15T03:20:39;4.10;99.90
11650;DHT22;5881;48.522;7.682;2023-04-15T03:23:05;4.10;99.90
11650;DHT22;5881;48.522;7.682;2023-04-15T03:25:30;4.10;1.00
11650;DHT22;5881;48.522;7.682;2023-04-15T03:27:56;4.20;99.90
11650;DHT22;5881;48.522;7.682;2023-04-15T03:30:22;4.30;99.90
11650;DHT22;5881;48.522;7.682;2023-04-15T03:32:48;4.30;99.90
11650;DHT22;5881;48.522;7.682;2023-04-15T03:35:14;4.40;99.90
11650;DHT22;5881;48.522;7.682;2023-04-15T03:37:40;4.20;99.90
11650;DHT22;5881;48.522;7.682;2023-04-15T03:40:06;4.50;99.90
11650;DHT22;5881;48.522;7.682;2023-04-15T03:42:32;4.50;99.90
11650;DHT22;5881;48.522;7.682;2023-04-15T03:44:58;4.60;99.90
11650;DHT22;5881;48.522;7.682;2023-04-15T03:47:24;4.60;99.90
11650;DHT22;5881;48.522;7.682;2023-04-15T03:49:49;4.50;99.90
11650;DHT22;5881;48.522;7.682;2023-04-15T03:52:15;4.40;99.90
11650;DHT22;5881;48.522;7.682;2023-04-15T03:54:41;4.60;99.90
11650;DHT22;5881;48.522;7.682;2023-04-15T03:57:06;4.60;99.90
11650;DHT22;5881;48.522;7.682;2023-04-15T03:59:32;4.50;99.90
11650;DHT22;5881;48.522;7.682;2023-04-15T04:01:58;4.50;99.90
11650;DHT22;5881;48.522;7.682;2023-04-15T04:04:23;4.60;99.90
11650;DHT22;5881;48.522;7.682;2023-04-15T04:06:49;4.50;1.00
11650;DHT22;5881;48.522;7.682;2023-04-15T04:09:15;4.90;1.00
11650;DHT22;5881;48.522;7.682;2023-04-15T04:11:41;4.60;99.90
11650;DHT22;5881;48.522;7.682;2023-04-15T04:14:06;4.80;99.90
11650;DHT22;5881;48.522;7.682;2023-04-15T04:16:32;4.80;99.90
11650;DHT22;5881;48.522;7.682;2023-04-15T04:18:57;4.70;99.90
11650;DHT22;5881;48.522;7.682;2023-04-15T04:21:23;5.00;99.90
11650;DHT22;5881;48.522;7.682;2023-04-15T04:23:49;5.20;99.90
11650;DHT22;5881;48.522;7.682;2023-04-15T04:26:14;5.40;99.90
11650;DHT22;5881;48.522;7.682;2023-04-15T04:28:40;5.30;99.90
11650;DHT22;5881;48.522;7.682;2023-04-15T04:31:06;5.20;99.90
11650;DHT22;5881;48.522;7.682;2023-04-15T04:33:32;5.30;99.90
11650;DHT22;5881;48.522;7.682;2023-04-15T04:35:58;5.40;99.90
11650;DHT22;5881;48.522;7.682;2023-04-15T04:38:23;5.30;99.90
11650;DHT22;5881;48.522;7.682;2023-04-15T04:40:49;5.30;99.90
11650;DHT22;5881;48.522;7.682;2023-04-15T04:43:15;5.30;99.90
11650;DHT22;5881;48.522;7.682;2023-04-15T04:45:41;5.30;99.90
11650;DHT22;5881;48.522;7.682;2023-04-15T04:48:07;5.30;99.90
11650;DHT22;5881;48.522;7.682;2023-04-15T04:50:34;5.40;99.90
11650;DHT22;5881;48.522;7.682;2023-04-15T04:53:00;5.30;99.90
11650;DHT22;5881;48.522;7.682;2023-04-15T04:55:26;5.40;99.90
11650;DHT22;5881;48.522;7.682;2023-04-15T04:57:52;5.30;99.90
11650;DHT22;5881;48.522;7.682;2023-04-15T05:00:17;5.30;99.90
11650;DHT22;5881;48.522;7.682;2023-04-15T05:02:44;5.40;99.90
11650;DHT22;5881;48.522;7.682;2023-04-15T05:05:10;5.50;99.90
11650;DHT22;5881;48.522;7.682;2023-04-15T05:07:36;5.50;99.90
11650;DHT22;5881;48.522;7.682;2023-04-15T05:10:06;5.60;99.90
11650;DHT22;5881;48.522;7.682;2023-04-15T05:12:31;5.60;99.90
11650;DHT22;5881;48.522;7.682;2023-04-15T05:14:57;5.80;99.90
11650;DHT22;5881;48.522;7.682;2023-04-15T05:17:23;5.80;99.90
11650;DHT22;5881;48.522;7.682;2023-04-15T05:19:48;5.90;99.90
11650;DHT22;5881;48.522;7.682;2023-04-15T05:22:14;5.80;99.90
11650;DHT22;5881;48.522;7.682;2023-04-15T05:24:39;5.80;99.90
11650;DHT22;5881;48.522;7.682;2023-04-15T05:27:05;5.80;99.90
11650;DHT22;5881;48.522;7.682;2023-04-15T05:29:33;5.80;99.90
11650;DHT22;5881;48.522;7.682;2023-04-15T05:31:58;5.90;99.90
11650;DHT22;5881;48.522;7.682;2023-04-15T05:34:24;6.20;99.90
11650;DHT22;5881;48.522;7.682;2023-04-15T05:36:49;6.00;99.90
11650;DHT22;5881;48.522;7.682;2023-04-15T05:39:15;6.10;99.90
11650;DHT22;5881;48.522;7.682;2023-04-15T05:41:41;6.20;99.90
11650;DHT22;5881;48.522;7.682;2023-04-15T05:44:06;6.10;99.90
11650;DHT22;5881;48.522;7.682;2023-04-15T05:46:32;6.20;99.90
11650;DHT22;5881;48.522;7.682;2023-04-15T05:48:57;6.20;99.90
11650;DHT22;5881;48.522;7.682;2023-04-15T05:51:23;6.20;99.90
11650;DHT22;5881;48.522;7.682;2023-04-15T05:53:49;6.20;99.90
11650;DHT22;5881;48.522;7.682;2023-04-15T05:56:14;6.20;99.90
11650;DHT22;5881;48.522;7.682;2023-04-15T05:58:40;6.20;99.90
11650;DHT22;5881;48.522;7.682;2023-04-15T06:01:06;6.20;99.90
11650;DHT22;5881;48.522;7.682;2023-04-15T06:03:31;6.30;99.90
11650;DHT22;5881;48.522;7.682;2023-04-15T06:05:57;6.30;99.90
11650;DHT22;5881;48.522;7.682;2023-04-15T06:08:23;6.30;99.90
11650;DHT22;5881;48.522;7.682;2023-04-15T06:10:49;6.30;99.90
11650;DHT22;5881;48.522;7.682;2023-04-15T06:13:14;6.40;99.90
11650;DHT22;5881;48.522;7.682;2023-04-15T06:15:41;6.40;99.90
11650;DHT22;5881;48.522;7.682;2023-04-15T06:18:07;6.50;99.90
11650;DHT22;5881;48.522;7.682;2023-04-15T06:20:33;6.70;91.60
11650;DHT22;5881;48.522;7.682;2023-04-15T06:22:58;6.60;67.10
11650;DHT22;5881;48.522;7.682;2023-04-15T06:25:24;6.90;50.90
11650;DHT22;5881;48.522;7.682;2023-04-15T06:27:49;7.20;28.60
11650;DHT22;5881;48.522;7.682;2023-04-15T06:30:15;7.30;8.80
11650;DHT22;5881;48.522;7.682;2023-04-15T06:32:41;7.60;4.10
11650;DHT22;5881;48.522;7.682;2023-04-15T06:35:07;7.80;1.00
11650;DHT22;5881;48.522;7.682;2023-04-15T06:37:33;8.20;1.00
11650;DHT22;5881;48.522;7.682;2023-04-15T06:39:58;8.60;1.00
11650;DHT22;5881;48.522;7.682;2023-04-15T06:42:24;9.50;1.00
11650;DHT22;5881;48.522;7.682;2023-04-15T06:44:50;10.80;1.00
11650;DHT22;5881;48.522;7.682;2023-04-15T06:47:16;10.80;1.00
11650;DHT22;5881;48.522;7.682;2023-04-15T06:49:41;10.90;1.00
11650;DHT22;5881;48.522;7.682;2023-04-15T06:52:09;11.30;1.00
11650;DHT22;5881;48.522;7.682;2023-04-15T06:54:34;12.10;1.00
11650;DHT22;5881;48.522;7.682;2023-04-15T06:57:00;12.50;1.00
11650;DHT22;5881;48.522;7.682;2023-04-15T06:59:26;13.70;1.00
11650;DHT22;5881;48.522;7.682;2023-04-15T07:01:52;14.60;1.00
11650;DHT22;5881;48.522;7.682;2023-04-15T07:04:17;16.10;1.00
11650;DHT22;5881;48.522;7.682;2023-04-15T07:06:43;16.70;1.00
11650;DHT22;5881;48.522;7.682;2023-04-15T07:09:09;16.60;1.00
11650;DHT22;5881;48.522;7.682;2023-04-15T07:11:35;16.40;1.00
11650;DHT22;5881;48.522;7.682;2023-04-15T07:14:00;17.40;1.00
11650;DHT22;5881;48.522;7.682;2023-04-15T07:16:26;17.10;1.00
11650;DHT22;5881;48.522;7.682;2023-04-15T07:18:52;17.50;1.00
11650;DHT22;5881;48.522;7.682;2023-04-15T07:21:18;18.80;1.00
11650;DHT22;5881;48.522;7.682;2023-04-15T07:23:44;16.30;1.00
11650;DHT22;5881;48.522;7.682;2023-04-15T07:26:09;15.00;1.00
11650;DHT22;5881;48.522;7.682;2023-04-15T07:28:35;14.70;1.00
11650;DHT22;5881;48.522;7.682;2023-04-15T07:31:01;16.50;1.00
11650;DHT22;5881;48.522;7.682;2023-04-15T07:33:26;17.20;1.00
11650;DHT22;5881;48.522;7.682;2023-04-15T07:35:52;15.80;1.00
11650;DHT22;5881;48.522;7.682;2023-04-15T07:38:18;15.90;1.00
11650;DHT22;5881;48.522;7.682;2023-04-15T07:40:43;14.40;1.00
11650;DHT22;5881;48.522;7.682;2023-04-15T07:43:09;14.10;1.00
11650;DHT22;5881;48.522;7.682;2023-04-15T07:45:35;17.70;1.00
11650;DHT22;5881;48.522;7.682;2023-04-15T07:48:01;17.50;1.00
11650;DHT22;5881;48.522;7.682;2023-04-15T07:50:27;15.90;1.00
11650;DHT22;5881;48.522;7.682;2023-04-15T07:52:53;15.80;1.00
11650;DHT22;5881;48.522;7.682;2023-04-15T07:55:19;15.70;1.00
11650;DHT22;5881;48.522;7.682;2023-04-15T07:57:47;14.30;1.00
11650;DHT22;5881;48.522;7.682;2023-04-15T08:00:13;13.60;1.00
11650;DHT22;5881;48.522;7.682;2023-04-15T08:02:40;13.40;1.00
11650;DHT22;5881;48.522;7.682;2023-04-15T08:05:08;13.10;1.00
11650;DHT22;5881;48.522;7.682;2023-04-15T08:07:36;12.90;1.00
11650;DHT22;5881;48.522;7.682;2023-04-15T08:10:05;13.00;1.00
11650;DHT22;5881;48.522;7.682;2023-04-15T08:12:31;12.90;1.00
11650;DHT22;5881;48.522;7.682;2023-04-15T08:14:57;13.30;1.00
11650;DHT22;5881;48.522;7.682;2023-04-15T08:17:23;13.30;1.00
11650;DHT22;5881;48.522;7.682;2023-04-15T08:19:49;13.00;1.00
11650;DHT22;5881;48.522;7.682;2023-04-15T08:22:15;14.40;1.00
11650;DHT22;5881;48.522;7.682;2023-04-15T08:24:41;16.30;1.00
11650;DHT22;5881;48.522;7.682;2023-04-15T08:27:06;18.50;1.00
11650;DHT22;5881;48.522;7.682;2023-04-15T08:29:33;19.80;1.00
11650;DHT22;5881;48.522;7.682;2023-04-15T08:31:59;19.70;1.00
11650;DHT22;5881;48.522;7.682;2023-04-15T08:34:26;19.90;1.00
11650;DHT22;5881;48.522;7.682;2023-04-15T08:36:52;19.10;1.00
11650;DHT22;5881;48.522;7.682;2023-04-15T08:39:17;19.80;1.00
11650;DHT22;5881;48.522;7.682;2023-04-15T08:41:50;19.80;1.00
11650;DHT22;5881;48.522;7.682;2023-04-15T08:44:17;21.00;1.00
11650;DHT22;5881;48.522;7.682;2023-04-15T08:46:43;20.90;1.00
11650;DHT22;5881;48.522;7.682;2023-04-15T08:49:12;20.00;1.00
11650;DHT22;5881;48.522;7.682;2023-04-15T08:51:41;19.80;1.00
11650;DHT22;5881;48.522;7.682;2023-04-15T08:54:08;20.70;1.00
11650;DHT22;5881;48.522;7.682;2023-04-15T08:56:34;20.30;1.00
11650;DHT22;5881;48.522;7.682;2023-04-15T08:59:01;18.80;1.00
11650;DHT22;5881;48.522;7.682;2023-04-15T09:01:28;19.90;1.00
11650;DHT22;5881;48.522;7.682;2023-04-15T09:03:53;20.00;1.00
11650;DHT22;5881;48.522;7.682;2023-04-15T09:06:21;20.60;1.00
11650;DHT22;5881;48.522;7.682;2023-04-15T09:08:48;22.40;1.00
11650;DHT22;5881;48.522;7.682;2023-04-15T09:11:14;21.50;1.00
11650;DHT22;5881;48.522;7.682;2023-04-15T09:13:42;20.60;1.00
11650;DHT22;5881;48.522;7.682;2023-04-15T09:16:07;21.50;1.00
11650;DHT22;5881;48.522;7.682;2023-04-15T09:18:34;21.90;1.00
11650;DHT22;5881;48.522;7.682;2023-04-15T09:21:04;23.60;1.00
11650;DHT22;5881;48.522;7.682;2023-04-15T09:23:33;23.20;1.00
11650;DHT22;5881;48.522;7.682;2023-04-15T09:25:59;23.00;1.00
11650;DHT22;5881;48.522;7.682;2023-04-15T09:28:25;23.00;1.00
11650;DHT22;5881;48.522;7.682;2023-04-15T09:31:00;23.00;1.00
11650;DHT22;5881;48.522;7.682;2023-04-15T09:33:28;23.20;1.00
11650;DHT22;5881;48.522;7.682;2023-04-15T09:36:01;20.70;1.00
11650;DHT22;5881;48.522;7.682;2023-04-15T09:38:27;21.10;1.00
11650;DHT22;5881;48.522;7.682;2023-04-15T09:40:54;20.20;1.00
11650;DHT22;5881;48.522;7.682;2023-04-15T09:43:19;20.60;1.00
11650;DHT22;5881;48.522;7.682;2023-04-15T09:45:50;21.50;1.00
11650;DHT22;5881;48.522;7.682;2023-04-15T09:48:20;21.80;1.00
11650;DHT22;5881;48.522;7.682;2023-04-15T09:50:48;21.60;1.00
11650;DHT22;5881;48.522;7.682;2023-04-15T09:53:19;21.50;1.00
11650;DHT22;5881;48.522;7.682;2023-04-15T09:55:52;21.40;1.00
11650;DHT22;5881;48.522;7.682;2023-04-15T09:58:26;19.60;1.00
11650;DHT22;5881;48.522;7.682;2023-04-15T10:00:53;19.50;1.00
11650;DHT22;5881;48.522;7.682;2023-04-15T10:03:23;19.10;1.00
11650;DHT22;5881;48.522;7.682;2023-04-15T10:05:51;19.80;1.00
11650;DHT22;5881;48.522;7.682;2023-04-15T10:08:21;20.00;1.00
11650;DHT22;5881;48.522;7.682;2023-04-15T10:10:48;21.20;1.00
11650;DHT22;5881;48.522;7.682;2023-04-15T10:13:17;21.70;1.00
11650;DHT22;5881;48.522;7.682;2023-04-15T10:15:47;21.30;1.00
11650;DHT22;5881;48.522;7.682;2023-04-15T10:18:16;20.90;1.00
11650;DHT22;5881;48.522;7.682;2023-04-15T10:20:45;20.70;1.00
11650;DHT22;5881;48.522;7.682;2023-04-15T10:23:11;20.20;1.00
11650;DHT22;5881;48.522;7.682;2023-04-15T10:25:38;21.40;1.00
11650;DHT22;5881;48.522;7.682;2023-04-15T10:28:05;20.10;1.00
11650;DHT22;5881;48.522;7.682;2023-04-15T10:30:32;22.10;1.00
11650;DHT22;5881;48.522;7.682;2023-04-15T10:33:02;22.10;1.00
11650;DHT22;5881;48.522;7.682;2023-04-15T10:35:30;23.00;1.00
11650;DHT22;5881;48.522;7.682;2023-04-15T10:37:56;22.10;1.00
11650;DHT22;5881;48.522;7.682;2023-04-15T10:40:25;23.00;1.00
11650;DHT22;5881;48.522;7.682;2023-04-15T10:42:59;22.90;1.00
11650;DHT22;5881;48.522;7.682;2023-04-15T10:45:27;22.80;1.00
11650;DHT22;5881;48.522;7.682;2023-04-15T10:47:56;23.10;1.00
11650;DHT22;5881;48.522;7.682;2023-04-15T10:50:25;22.80;1.00
11650;DHT22;5881;48.522;7.682;2023-04-15T10:52:51;22.50;1.00
11650;DHT22;5881;48.522;7.682;2023-04-15T10:55:22;22.80;1.00
11650;DHT22;5881;48.522;7.682;2023-04-15T10:57:57;23.30;1.00
11650;DHT22;5881;48.522;7.682;2023-04-15T11:00:24;22.90;1.00
11650;DHT22;5881;48.522;7.682;2023-04-15T11:02:56;23.20;1.00
11650;DHT22;5881;48.522;7.682;2023-04-15T11:05:48;22.80;1.00
11650;DHT22;5881;48.522;7.682;2023-04-15T11:08:14;22.10;1.00
11650;DHT22;5881;48.522;7.682;2023-04-15T11:13:16;22.60;1.00
11650;DHT22;5881;48.522;7.682;2023-04-15T11:15:46;22.20;1.00
11650;DHT22;5881;48.522;7.682;2023-04-15T11:20:43;22.10;1.00
11650;DHT22;5881;48.522;7.682;2023-04-15T11:23:13;22.00;1.00
11650;DHT22;5881;48.522;7.682;2023-04-15T11:25:39;20.80;1.00
11650;DHT22;5881;48.522;7.682;2023-04-15T11:28:05;20.10;1.00
11650;DHT22;5881;48.522;7.682;2023-04-15T11:30:34;21.30;1.00
11650;DHT22;5881;48.522;7.682;2023-04-15T11:33:01;21.60;1.00
11650;DHT22;5881;48.522;7.682;2023-04-15T11:35:28;22.10;1.00
11650;DHT22;5881;48.522;7.682;2023-04-15T11:37:53;22.70;1.00
11650;DHT22;5881;48.522;7.682;2023-04-15T11:40:28;22.00;1.00
11650;DHT22;5881;48.522;7.682;2023-04-15T11:43:26;21.80;1.00
11650;DHT22;5881;48.522;7.682;2023-04-15T11:45:57;21.70;1.00
11650;DHT22;5881;48.522;7.682;2023-04-15T11:48:28;21.20;1.00
11650;DHT22;5881;48.522;7.682;2023-04-15T11:50:58;20.20;1.00
11650;DHT22;5881;48.522;7.682;2023-04-15T11:53:34;20.10;1.00
11650;DHT22;5881;48.522;7.682;2023-04-15T11:56:01;19.90;1.00
11650;DHT22;5881;48.522;7.682;2023-04-15T11:58:28;20.40;1.00
11650;DHT22;5881;48.522;7.682;2023-04-15T12:00:57;19.30;1.00
11650;DHT22;5881;48.522;7.682;2023-04-15T12:03:25;20.40;1.00
11650;DHT22;5881;48.522;7.682;2023-04-15T12:13:53;21.30;1.00
11650;DHT22;5881;48.522;7.682;2023-04-15T12:16:20;20.10;1.00
11650;DHT22;5881;48.522;7.682;2023-04-15T12:18:46;19.50;1.00
11650;DHT22;5881;48.522;7.682;2023-04-15T12:21:13;19.10;1.00
11650;DHT22;5881;48.522;7.682;2023-04-15T12:23:54;19.00;1.00
11650;DHT22;5881;48.522;7.682;2023-04-15T12:26:29;19.50;1.00
11650;DHT22;5881;48.522;7.682;2023-04-15T12:29:09;19.10;1.00
11650;DHT22;5881;48.522;7.682;2023-04-15T12:31:35;20.50;1.00
11650;DHT22;5881;48.522;7.682;2023-04-15T12:34:02;20.40;1.00
11650;DHT22;5881;48.522;7.682;2023-04-15T12:36:29;19.50;1.00
11650;DHT22;5881;48.522;7.682;2023-04-15T12:38:56;19.30;1.00
11650;DHT22;5881;48.522;7.682;2023-04-15T12:41:22;19.50;1.00
11650;DHT22;5881;48.522;7.682;2023-04-15T12:43:49;19.50;1.00
11650;DHT22;5881;48.522;7.682;2023-04-15T12:46:14;19.50;1.00
11650;DHT22;5881;48.522;7.682;2023-04-15T12:48:40;19.70;1.00
11650;DHT22;5881;48.522;7.682;2023-04-15T12:51:06;19.00;1.00
11650;DHT22;5881;48.522;7.682;2023-04-15T12:53:31;19.10;1.00
11650;DHT22;5881;48.522;7.682;2023-04-15T12:55:57;18.90;1.00
11650;DHT22;5881;48.522;7.682;2023-04-15T12:58:23;18.90;1.00
11650;DHT22;5881;48.522;7.682;2023-04-15T13:00:48;18.70;1.00
11650;DHT22;5881;48.522;7.682;2023-04-15T13:03:15;18.80;1.00
11650;DHT22;5881;48.522;7.682;2023-04-15T13:05:41;18.90;1.00
11650;DHT22;5881;48.522;7.682;2023-04-15T13:08:07;19.10;1.00
11650;DHT22;5881;48.522;7.682;2023-04-15T13:10:34;19.00;1.00
11650;DHT22;5881;48.522;7.682;2023-04-15T13:13:01;19.20;1.00
11650;DHT22;5881;48.522;7.682;2023-04-15T13:15:27;18.80;1.00
11650;DHT22;5881;48.522;7.682;2023-04-15T13:17:53;19.30;1.00
11650;DHT22;5881;48.522;7.682;2023-04-15T13:20:18;18.50;1.00
11650;DHT22;5881;48.522;7.682;2023-04-15T13:22:44;18.00;1.00
11650;DHT22;5881;48.522;7.682;2023-04-15T13:25:10;18.30;1.00
11650;DHT22;5881;48.522;7.682;2023-04-15T13:27:37;18.60;1.00
11650;DHT22;5881;48.522;7.682;2023-04-15T13:30:04;18.60;1.00
11650;DHT22;5881;48.522;7.682;2023-04-15T13:32:30;18.60;1.00
11650;DHT22;5881;48.522;7.682;2023-04-15T13:34:55;18.80;1.00
11650;DHT22;5881;48.522;7.682;2023-04-15T13:37:28;18.80;1.00
11650;DHT22;5881;48.522;7.682;2023-04-15T13:39:55;17.90;1.00
11650;DHT22;5881;48.522;7.682;2023-04-15T13:42:21;18.10;1.00
11650;DHT22;5881;48.522;7.682;2023-04-15T13:44:48;17.90;1.00
11650;DHT22;5881;48.522;7.682;2023-04-15T13:47:14;18.60;1.00
11650;DHT22;5881;48.522;7.682;2023-04-15T13:49:40;18.70;1.00
11650;DHT22;5881;48.522;7.682;2023-04-15T13:52:06;18.30;1.00
11650;DHT22;5881;48.522;7.682;2023-04-15T13:54:32;18.50;1.00
11650;DHT22;5881;48.522;7.682;2023-04-15T13:56:57;18.70;1.00
11650;DHT22;5881;48.522;7.682;2023-04-15T13:59:23;18.90;1.00
11650;DHT22;5881;48.522;7.682;2023-04-15T14:01:48;19.20;1.00
11650;DHT22;5881;48.522;7.682;2023-04-15T14:04:14;19.20;1.00
11650;DHT22;5881;48.522;7.682;2023-04-15T14:06:40;18.90;1.00
11650;DHT22;5881;48.522;7.682;2023-04-15T14:09:05;19.20;1.00
11650;DHT22;5881;48.522;7.682;2023-04-15T14:11:31;19.50;1.00
11650;DHT22;5881;48.522;7.682;2023-04-15T14:13:59;19.40;1.00
11650;DHT22;5881;48.522;7.682;2023-04-15T14:16:25;18.90;1.00
11650;DHT22;5881;48.522;7.682;2023-04-15T14:18:50;19.00;1.00
11650;DHT22;5881;48.522;7.682;2023-04-15T14:21:16;19.10;1.00
11650;DHT22;5881;48.522;7.682;2023-04-15T14:23:42;19.00;1.00
11650;DHT22;5881;48.522;7.682;2023-04-15T14:26:08;18.80;1.00
11650;DHT22;5881;48.522;7.682;2023-04-15T14:28:33;18.80;1.00
11650;DHT22;5881;48.522;7.682;2023-04-15T14:30:59;18.80;1.00
11650;DHT22;5881;48.522;7.682;2023-04-15T14:33:24;18.30;1.00
11650;DHT22;5881;48.522;7.682;2023-04-15T14:35:50;18.30;1.00
11650;DHT22;5881;48.522;7.682;2023-04-15T14:38:16;18.40;1.00
11650;DHT22;5881;48.522;7.682;2023-04-15T14:40:41;18.10;1.00
11650;DHT22;5881;48.522;7.682;2023-04-15T14:43:07;18.50;1.00
11650;DHT22;5881;48.522;7.682;2023-04-15T14:45:33;18.50;1.00
11650;DHT22;5881;48.522;7.682;2023-04-15T14:47:59;18.40;1.00
11650;DHT22;5881;48.522;7.682;2023-04-15T14:50:25;18.30;1.00
11650;DHT22;5881;48.522;7.682;2023-04-15T14:52:51;18.40;1.00
11650;DHT22;5881;48.522;7.682;2023-04-15T14:55:17;18.50;1.00
11650;DHT22;5881;48.522;7.682;2023-04-15T14:57:42;18.40;1.00
11650;DHT22;5881;48.522;7.682;2023-04-15T15:00:10;18.00;1.00
11650;DHT22;5881;48.522;7.682;2023-04-15T15:02:36;18.10;1.00
11650;DHT22;5881;48.522;7.682;2023-04-15T15:05:02;18.10;1.00
11650;DHT22;5881;48.522;7.682;2023-04-15T15:07:28;17.90;1.00
11650;DHT22;5881;48.522;7.682;2023-04-15T15:09:54;18.10;1.00
11650;DHT22;5881;48.522;7.682;2023-04-15T15:12:20;17.90;1.00
11650;DHT22;5881;48.522;7.682;2023-04-15T15:14:49;18.30;1.00
11650;DHT22;5881;48.522;7.682;2023-04-15T15:17:15;18.10;1.00
11650;DHT22;5881;48.522;7.682;2023-04-15T15:19:40;18.00;1.00
11650;DHT22;5881;48.522;7.682;2023-04-15T15:22:06;17.80;1.00
11650;DHT22;5881;48.522;7.682;2023-04-15T15:24:32;17.70;1.00
11650;DHT22;5881;48.522;7.682;2023-04-15T15:26:57;17.70;1.00
11650;DHT22;5881;48.522;7.682;2023-04-15T15:29:23;17.60;1.00
11650;DHT22;5881;48.522;7.682;2023-04-15T15:31:49;17.40;1.00
11650;DHT22;5881;48.522;7.682;2023-04-15T15:34:15;17.40;1.00
11650;DHT22;5881;48.522;7.682;2023-04-15T15:36:41;17.40;1.00
11650;DHT22;5881;48.522;7.682;2023-04-15T15:39:07;17.50;1.00
11650;DHT22;5881;48.522;7.682;2023-04-15T15:41:33;17.30;1.00
11650;DHT22;5881;48.522;7.682;2023-04-15T15:43:58;17.30;1.00
11650;DHT22;5881;48.522;7.682;2023-04-15T15:46:26;17.20;1.00
11650;DHT22;5881;48.522;7.682;2023-04-15T15:48:53;17.30;1.00
11650;DHT22;5881;48.522;7.682;2023-04-15T15:51:19;17.20;1.00
11650;DHT22;5881;48.522;7.682;2023-04-15T15:53:45;17.30;1.00
11650;DHT22;5881;48.522;7.682;2023-04-15T15:56:11;17.30;1.00
11650;DHT22;5881;48.522;7.682;2023-04-15T15:58:37;17.10;1.00
11650;DHT22;5881;48.522;7.682;2023-04-15T16:01:02;17.10;1.00
11650;DHT22;5881;48.522;7.682;2023-04-15T16:03:28;16.90;1.00
11650;DHT22;5881;48.522;7.682;2023-04-15T16:05:54;16.80;1.00
11650;DHT22;5881;48.522;7.682;2023-04-15T16:08:19;16.60;1.00
11650;DHT22;5881;48.522;7.682;2023-04-15T16:10:45;16.70;1.00
11650;DHT22;5881;48.522;7.682;2023-04-15T16:13:11;16.60;1.00